CheckWX is a tool to help pilots better visualize weather data.  It is not intended as a substitute for an official pre-flight weather briefing.

16:09:45 UTC

EGUL TAF
RAF Lakenheath Airport
Lakenheath, United Kingdom
TAF AMD EGUL 131500Z 1315/1419 26010G20KT 9999 BKN040 QNH2889INS TEMPO 1315/1319 26015G25KT BECMG 1408/1409 26015G25KT 9999 BKN025 QNH2824INS TEMPO 1410/1416 26025G35KT BKN020 510003 TX08/1315Z TN03/1403Z LAST NO AMDS AFT 1315 NEXT 1605

Dec-13@
15:00 UTC

Dec-13 @ 15:00 UTC

Dec-14@
08:00 UTC

Dec-14 @ 08:00 UTC

TAF AMD EGUL 131500Z 1315/1419 26010G20KT 9999 BKN040 QNH2889INS

Expired

Wind
  • 260° at 10 KTS
  • {Gusting to 20 KTS
Cloud Levels
  • Broken at 4,000' AGL

Dec-13@
15:00 UTC

Dec-13 @ 15:00 UTC

Dec-13@
19:00 UTC

Dec-13 @ 19:00 UTC

TEMPO 1315/1319 26015G25KT

Expired

Wind
  • 260° at 15 KTS
  • {Gusting to 25 KTS

Dec-14@
08:00 UTC

Dec-14 @ 08:00 UTC

Dec-14@
19:00 UTC

Dec-14 @ 19:00 UTC

BECMG 1408/1409 26015G25KT 9999 BKN025 QNH2824INS

Becoming

Becoming Conditions expected by Sat, Dec 14, 2019 @ 09:00 UTC

Wind
  • 260° at 15 KTS
  • {Gusting to 25 KTS
Cloud Levels
  • Broken at 2,500' AGL

Dec-14@
10:00 UTC

Dec-14 @ 10:00 UTC

Dec-14@
16:00 UTC

Dec-14 @ 16:00 UTC

TEMPO 1410/1416 26025G35KT BKN020 510003 TX08/1315Z TN03/1403Z LAST NO AMDS AFT 1315 NEXT 1605

Expired

Wind
  • 260° at 25 KTS
  • {Gusting to 35 KTS
Cloud Levels
  • Broken at 2,000' AGL
Turbulence
< Light turbulence expected at the surface extending to 3,000' AGL